sensor_id;sensor_type;location;lat;lon;timestamp;pressure;altitude;pressure_sealevel;temperature;humidity
21203;BME280;10759;51.982;9.232;2022-12-29T00:01:42;99119.44;;;7.85;100.00
21203;BME280;10759;51.982;9.232;2022-12-29T00:04:35;99126.88;;;7.98;100.00
21203;BME280;10759;51.982;9.232;2022-12-29T00:07:14;99136.44;;;8.02;100.00
21203;BME280;10759;51.982;9.232;2022-12-29T00:09:50;99124.69;;;8.06;100.00
21203;BME280;10759;51.982;9.232;2022-12-29T00:12:34;99134.13;;;8.13;100.00
21203;BME280;10759;51.982;9.232;2022-12-29T00:15:24;99143.84;;;8.14;100.00
21203;BME280;10759;51.982;9.232;2022-12-29T00:18:17;99135.56;;;8.20;100.00
21203;BME280;10759;51.982;9.232;2022-12-29T00:20:55;99110.75;;;7.99;100.00
21203;BME280;10759;51.982;9.232;2022-12-29T00:23:52;99130.25;;;8.20;100.00
21203;BME280;10759;51.982;9.232;2022-12-29T00:26:40;99132.28;;;8.51;100.00
21203;BME280;10759;51.982;9.232;2022-12-29T00:29:42;99113.91;;;8.26;100.00
21203;BME280;10759;51.982;9.232;2022-12-29T00:32:33;99141.31;;;8.49;100.00
21203;BME280;10759;51.982;9.232;2022-12-29T00:35:33;99135.22;;;8.47;100.00
21203;BME280;10759;51.982;9.232;2022-12-29T00:38:16;99138.44;;;8.53;100.00
21203;BME280;10759;51.982;9.232;2022-12-29T00:41:08;99123.19;;;8.55;100.00
21203;BME280;10759;51.982;9.232;2022-12-29T00:44:02;99124.84;;;8.58;100.00
21203;BME280;10759;51.982;9.232;2022-12-29T00:46:48;99103.88;;;8.50;100.00
21203;BME280;10759;51.982;9.232;2022-12-29T00:49:39;99111.88;;;8.50;100.00
21203;BME280;10759;51.982;9.232;2022-12-29T00:52:33;99109.16;;;8.52;100.00
21203;BME280;10759;51.982;9.232;2022-12-29T00:55:08;99091.47;;;8.49;100.00
21203;BME280;10759;51.982;9.232;2022-12-29T00:57:42;99076.38;;;8.29;100.00
21203;BME280;10759;51.982;9.232;2022-12-29T01:00:27;99096.59;;;8.35;100.00
21203;BME280;10759;51.982;9.232;2022-12-29T01:03:11;99085.34;;;8.28;100.00
21203;BME280;10759;51.982;9.232;2022-12-29T01:06:12;99092.34;;;8.31;100.00
21203;BME280;10759;51.982;9.232;2022-12-29T01:08:50;99087.22;;;8.26;100.00
21203;BME280;10759;51.982;9.232;2022-12-29T01:11:38;99069.19;;;8.31;100.00
21203;BME280;10759;51.982;9.232;2022-12-29T01:14:36;99075.25;;;8.35;100.00
21203;BME280;10759;51.982;9.232;2022-12-29T01:17:20;99090.31;;;8.36;100.00
21203;BME280;10759;51.982;9.232;2022-12-29T01:19:59;99092.97;;;8.36;100.00
21203;BME280;10759;51.982;9.232;2022-12-29T01:22:40;99068.31;;;8.31;100.00
21203;BME280;10759;51.982;9.232;2022-12-29T01:25:25;99062.97;;;8.31;100.00
21203;BME280;10759;51.982;9.232;2022-12-29T01:28:00;98804.97;;;6.72;100.00
21203;BME280;10759;51.982;9.232;2022-12-29T01:30:37;99069.97;;;8.33;100.00
21203;BME280;10759;51.982;9.232;2022-12-29T01:33:16;99066.09;;;8.41;100.00
21203;BME280;10759;51.982;9.232;2022-12-29T01:35:49;99061.91;;;8.35;100.00
21203;BME280;10759;51.982;9.232;2022-12-29T01:38:32;99030.56;;;8.21;100.00
21203;BME280;10759;51.982;9.232;2022-12-29T01:41:31;99044.75;;;8.41;100.00
21203;BME280;10759;51.982;9.232;2022-12-29T01:44:49;99040.34;;;8.40;100.00
21203;BME280;10759;51.982;9.232;2022-12-29T01:47:36;99020.06;;;8.35;100.00
21203;BME280;10759;51.982;9.232;2022-12-29T01:50:29;98934.78;;;7.80;100.00
21203;BME280;10759;51.982;9.232;2022-12-29T01:53:04;99026.06;;;8.41;100.00
21203;BME280;10759;51.982;9.232;2022-12-29T01:55:54;99038.16;;;8.48;100.00
21203;BME280;10759;51.982;9.232;2022-12-29T01:58:54;99037.69;;;8.57;100.00
21203;BME280;10759;51.982;9.232;2022-12-29T02:01:39;99039.00;;;8.66;100.00
21203;BME280;10759;51.982;9.232;2022-12-29T02:04:27;98971.84;;;8.38;100.00
21203;BME280;10759;51.982;9.232;2022-12-29T02:07:05;99033.38;;;8.72;100.00
21203;BME280;10759;51.982;9.232;2022-12-29T02:09:37;99036.19;;;8.69;100.00
21203;BME280;10759;51.982;9.232;2022-12-29T02:12:20;99032.81;;;8.65;100.00
21203;BME280;10759;51.982;9.232;2022-12-29T02:14:59;99026.53;;;8.66;100.00
21203;BME280;10759;51.982;9.232;2022-12-29T02:18:11;99014.97;;;8.66;100.00
21203;BME280;10759;51.982;9.232;2022-12-29T02:21:30;99032.25;;;8.76;100.00
21203;BME280;10759;51.982;9.232;2022-12-29T02:27:51;98998.34;;;8.60;100.00
21203;BME280;10759;51.982;9.232;2022-12-29T02:30:45;99030.06;;;8.84;100.00
21203;BME280;10759;51.982;9.232;2022-12-29T02:33:46;99028.09;;;8.88;100.00
21203;BME280;10759;51.982;9.232;2022-12-29T02:36:55;99029.03;;;8.87;100.00
21203;BME280;10759;51.982;9.232;2022-12-29T02:39:53;99034.75;;;8.96;100.00
21203;BME280;10759;51.982;9.232;2022-12-29T02:42:41;99037.03;;;9.04;100.00
21203;BME280;10759;51.982;9.232;2022-12-29T02:45:31;98926.63;;;8.35;100.00
21203;BME280;10759;51.982;9.232;2022-12-29T02:48:17;99012.22;;;8.85;100.00
21203;BME280;10759;51.982;9.232;2022-12-29T02:51:06;98984.13;;;8.60;100.00
21203;BME280;10759;51.982;9.232;2022-12-29T02:54:07;99021.03;;;8.87;100.00
21203;BME280;10759;51.982;9.232;2022-12-29T02:57:05;99013.81;;;8.89;100.00
21203;BME280;10759;51.982;9.232;2022-12-29T02:59:33;99009.75;;;8.97;100.00
21203;BME280;10759;51.982;9.232;2022-12-29T03:05:34;99025.56;;;9.02;100.00
21203;BME280;10759;51.982;9.232;2022-12-29T03:08:24;98955.16;;;8.52;100.00
21203;BME280;10759;51.982;9.232;2022-12-29T03:11:19;99026.66;;;8.98;100.00
21203;BME280;10759;51.982;9.232;2022-12-29T03:14:32;99014.56;;;8.91;100.00
21203;BME280;10759;51.982;9.232;2022-12-29T03:17:33;98911.56;;;8.34;100.00
21203;BME280;10759;51.982;9.232;2022-12-29T03:20:38;98996.56;;;8.94;100.00
21203;BME280;10759;51.982;9.232;2022-12-29T03:23:24;98969.72;;;8.80;100.00
21203;BME280;10759;51.982;9.232;2022-12-29T03:26:05;98979.94;;;8.89;100.00
21203;BME280;10759;51.982;9.232;2022-12-29T03:28:50;98963.56;;;8.95;100.00
21203;BME280;10759;51.982;9.232;2022-12-29T03:31:30;98950.97;;;8.81;100.00
21203;BME280;10759;51.982;9.232;2022-12-29T03:34:13;98967.13;;;8.96;100.00
21203;BME280;10759;51.982;9.232;2022-12-29T03:37:00;98974.00;;;9.00;100.00
21203;BME280;10759;51.982;9.232;2022-12-29T03:39:48;98970.22;;;9.04;100.00
21203;BME280;10759;51.982;9.232;2022-12-29T03:42:37;98956.16;;;9.00;100.00
21203;BME280;10759;51.982;9.232;2022-12-29T03:45:11;98971.53;;;9.13;100.00
21203;BME280;10759;51.982;9.232;2022-12-29T03:48:03;98977.59;;;9.16;100.00
21203;BME280;10759;51.982;9.232;2022-12-29T03:50:41;98976.19;;;9.09;100.00
21203;BME280;10759;51.982;9.232;2022-12-29T03:53:39;98974.13;;;9.14;100.00
21203;BME280;10759;51.982;9.232;2022-12-29T03:56:11;98967.06;;;9.13;100.00
21203;BME280;10759;51.982;9.232;2022-12-29T03:58:54;98968.25;;;9.08;100.00
21203;BME280;10759;51.982;9.232;2022-12-29T04:01:44;98971.38;;;9.16;100.00
21203;BME280;10759;51.982;9.232;2022-12-29T04:04:22;98974.97;;;9.15;100.00
21203;BME280;10759;51.982;9.232;2022-12-29T04:07:01;98981.78;;;9.20;100.00
21203;BME280;10759;51.982;9.232;2022-12-29T04:09:42;98966.72;;;9.19;100.00
21203;BME280;10759;51.982;9.232;2022-12-29T04:12:38;98968.44;;;9.20;100.00
21203;BME280;10759;51.982;9.232;2022-12-29T04:15:17;98954.31;;;9.18;100.00
21203;BME280;10759;51.982;9.232;2022-12-29T04:17:53;98958.88;;;9.32;100.00
21203;BME280;10759;51.982;9.232;2022-12-29T04:20:25;98964.47;;;9.28;100.00
21203;BME280;10759;51.982;9.232;2022-12-29T04:23:19;98962.28;;;9.36;100.00
21203;BME280;10759;51.982;9.232;2022-12-29T04:26:23;98927.59;;;9.18;100.00
21203;BME280;10759;51.982;9.232;2022-12-29T04:29:21;98959.16;;;9.43;100.00
21203;BME280;10759;51.982;9.232;2022-12-29T04:32:21;98947.75;;;9.40;100.00
21203;BME280;10759;51.982;9.232;2022-12-29T04:35:14;98948.38;;;9.45;100.00
21203;BME280;10759;51.982;9.232;2022-12-29T04:37:49;98956.81;;;9.37;100.00
21203;BME280;10759;51.982;9.232;2022-12-29T04:40:48;98942.41;;;9.40;100.00
21203;BME280;10759;51.982;9.232;2022-12-29T04:43:49;98940.88;;;9.36;100.00
21203;BME280;10759;51.982;9.232;2022-12-29T04:46:51;98950.44;;;9.40;100.00
21203;BME280;10759;51.982;9.232;2022-12-29T04:50:02;98970.72;;;9.44;100.00
21203;BME280;10759;51.982;9.232;2022-12-29T04:52:44;98971.59;;;9.60;100.00
21203;BME280;10759;51.982;9.232;2022-12-29T04:55:38;98962.19;;;9.53;100.00
21203;BME280;10759;51.982;9.232;2022-12-29T04:58:15;98951.75;;;9.49;100.00
21203;BME280;10759;51.982;9.232;2022-12-29T05:04:34;98956.25;;;9.48;100.00
21203;BME280;10759;51.982;9.232;2022-12-29T05:07:02;98947.44;;;9.46;100.00
21203;BME280;10759;51.982;9.232;2022-12-29T05:09:30;98944.16;;;9.41;100.00
21203;BME280;10759;51.982;9.232;2022-12-29T05:11:59;98925.34;;;9.27;100.00
21203;BME280;10759;51.982;9.232;2022-12-29T05:14:29;98934.06;;;9.46;100.00
21203;BME280;10759;51.982;9.232;2022-12-29T05:16:59;98937.78;;;9.43;100.00
21203;BME280;10759;51.982;9.232;2022-12-29T05:19:27;98934.25;;;9.43;100.00
21203;BME280;10759;51.982;9.232;2022-12-29T05:21:56;98915.06;;;9.35;100.00
21203;BME280;10759;51.982;9.232;2022-12-29T05:24:26;98922.16;;;9.36;100.00
21203;BME280;10759;51.982;9.232;2022-12-29T05:26:55;98934.31;;;9.41;100.00
21203;BME280;10759;51.982;9.232;2022-12-29T05:29:42;98896.81;;;9.11;100.00
21203;BME280;10759;51.982;9.232;2022-12-29T05:32:13;98935.69;;;9.33;100.00
21203;BME280;10759;51.982;9.232;2022-12-29T05:34:45;98920.19;;;9.23;100.00
21203;BME280;10759;51.982;9.232;2022-12-29T05:37:14;98938.69;;;9.42;100.00
21203;BME280;10759;51.982;9.232;2022-12-29T05:39:44;98813.97;;;8.79;100.00
21203;BME280;10759;51.982;9.232;2022-12-29T05:42:12;98930.19;;;9.36;100.00
21203;BME280;10759;51.982;9.232;2022-12-29T05:44:49;98925.00;;;9.49;100.00
21203;BME280;10759;51.982;9.232;2022-12-29T05:47:34;98920.69;;;9.46;100.00
21203;BME280;10759;51.982;9.232;2022-12-29T05:50:23;98919.66;;;9.49;100.00
21203;BME280;10759;51.982;9.232;2022-12-29T05:53:21;98923.72;;;9.56;100.00
21203;BME280;10759;51.982;9.232;2022-12-29T05:55:49;98903.28;;;9.39;100.00
21203;BME280;10759;51.982;9.232;2022-12-29T05:58:20;98875.53;;;9.26;100.00
21203;BME280;10759;51.982;9.232;2022-12-29T06:00:52;98915.16;;;9.49;100.00
21203;BME280;10759;51.982;9.232;2022-12-29T06:03:23;98917.25;;;9.60;100.00
21203;BME280;10759;51.982;9.232;2022-12-29T06:05:53;98896.53;;;9.63;100.00
21203;BME280;10759;51.982;9.232;2022-12-29T06:08:22;98887.53;;;9.64;100.00
21203;BME280;10759;51.982;9.232;2022-12-29T06:10:50;98900.06;;;9.64;100.00
21203;BME280;10759;51.982;9.232;2022-12-29T06:13:18;98896.72;;;9.60;100.00
21203;BME280;10759;51.982;9.232;2022-12-29T06:15:49;98914.13;;;9.67;100.00
21203;BME280;10759;51.982;9.232;2022-12-29T06:18:17;98805.25;;;9.08;100.00
21203;BME280;10759;51.982;9.232;2022-12-29T06:20:47;98902.72;;;9.64;100.00
21203;BME280;10759;51.982;9.232;2022-12-29T06:23:17;98908.06;;;9.80;100.00
21203;BME280;10759;51.982;9.232;2022-12-29T06:25:48;98896.00;;;9.73;100.00
21203;BME280;10759;51.982;9.232;2022-12-29T06:28:16;98892.38;;;9.74;100.00
21203;BME280;10759;51.982;9.232;2022-12-29T06:30:45;98906.84;;;9.70;100.00
21203;BME280;10759;51.982;9.232;2022-12-29T06:33:15;98908.59;;;9.71;100.00
21203;BME280;10759;51.982;9.232;2022-12-29T06:35:43;98904.28;;;9.68;100.00
21203;BME280;10759;51.982;9.232;2022-12-29T06:38:13;98907.03;;;9.82;100.00
21203;BME280;10759;51.982;9.232;2022-12-29T06:40:41;98907.75;;;9.70;100.00
21203;BME280;10759;51.982;9.232;2022-12-29T06:43:41;98930.53;;;9.77;100.00
21203;BME280;10759;51.982;9.232;2022-12-29T06:46:24;98930.59;;;9.76;100.00
21203;BME280;10759;51.982;9.232;2022-12-29T06:48:54;98913.53;;;9.62;100.00
21203;BME280;10759;51.982;9.232;2022-12-29T06:51:22;98930.78;;;9.73;100.00
21203;BME280;10759;51.982;9.232;2022-12-29T06:53:50;98921.19;;;9.68;100.00
21203;BME280;10759;51.982;9.232;2022-12-29T06:56:18;98913.44;;;9.64;100.00
21203;BME280;10759;51.982;9.232;2022-12-29T06:58:47;98871.88;;;9.42;100.00
21203;BME280;10759;51.982;9.232;2022-12-29T07:01:15;98921.00;;;9.72;100.00
21203;BME280;10759;51.982;9.232;2022-12-29T07:03:47;98930.59;;;9.76;100.00
21203;BME280;10759;51.982;9.232;2022-12-29T07:06:16;98946.72;;;9.90;100.00
21203;BME280;10759;51.982;9.232;2022-12-29T07:08:44;98950.13;;;10.08;100.00
21203;BME280;10759;51.982;9.232;2022-12-29T07:11:12;98949.56;;;10.33;100.00
21203;BME280;10759;51.982;9.232;2022-12-29T07:13:43;98949.69;;;10.46;100.00
21203;BME280;10759;51.982;9.232;2022-12-29T07:16:12;98871.41;;;9.96;100.00
21203;BME280;10759;51.982;9.232;2022-12-29T07:18:43;98950.63;;;10.30;100.00
21203;BME280;10759;51.982;9.232;2022-12-29T07:21:11;98967.19;;;10.37;100.00
21203;BME280;10759;51.982;9.232;2022-12-29T07:23:45;98956.56;;;10.66;100.00
21203;BME280;10759;51.982;9.232;2022-12-29T07:26:14;98950.19;;;10.52;100.00
21203;BME280;10759;51.982;9.232;2022-12-29T07:28:44;98788.31;;;9.39;100.00
21203;BME280;10759;51.982;9.232;2022-12-29T07:31:15;98930.94;;;10.46;100.00
21203;BME280;10759;51.982;9.232;2022-12-29T07:33:43;98968.13;;;10.66;100.00
21203;BME280;10759;51.982;9.232;2022-12-29T07:36:12;98949.09;;;10.71;100.00
21203;BME280;10759;51.982;9.232;2022-12-29T07:38:40;98945.66;;;10.69;100.00
21203;BME280;10759;51.982;9.232;2022-12-29T07:41:08;98960.69;;;10.86;100.00
21203;BME280;10759;51.982;9.232;2022-12-29T07:43:37;98965.56;;;10.93;100.00
21203;BME280;10759;51.982;9.232;2022-12-29T07:46:44;98960.28;;;10.92;100.00
21203;BME280;10759;51.982;9.232;2022-12-29T07:49:22;98957.53;;;11.08;100.00
21203;BME280;10759;51.982;9.232;2022-12-29T07:51:50;98961.16;;;10.92;100.00
21203;BME280;10759;51.982;9.232;2022-12-29T07:54:19;98955.72;;;10.94;100.00
21203;BME280;10759;51.982;9.232;2022-12-29T07:56:49;98949.50;;;10.93;100.00
21203;BME280;10759;51.982;9.232;2022-12-29T07:59:18;98968.25;;;10.93;100.00
21203;BME280;10759;51.982;9.232;2022-12-29T08:01:47;98953.59;;;10.85;100.00
21203;BME280;10759;51.982;9.232;2022-12-29T08:04:17;98962.88;;;10.79;100.00
21203;BME280;10759;51.982;9.232;2022-12-29T08:06:45;98970.84;;;10.81;100.00
21203;BME280;10759;51.982;9.232;2022-12-29T08:09:13;98971.13;;;10.90;100.00
21203;BME280;10759;51.982;9.232;2022-12-29T08:11:48;98995.13;;;10.92;100.00
21203;BME280;10759;51.982;9.232;2022-12-29T08:14:16;98961.16;;;10.78;100.00
21203;BME280;10759;51.982;9.232;2022-12-29T08:16:45;99003.88;;;10.95;100.00
21203;BME280;10759;51.982;9.232;2022-12-29T08:19:14;99015.06;;;10.88;100.00
21203;BME280;10759;51.982;9.232;2022-12-29T08:21:42;98998.72;;;10.62;100.00
21203;BME280;10759;51.982;9.232;2022-12-29T08:24:12;99025.16;;;10.68;100.00
21203;BME280;10759;51.982;9.232;2022-12-29T08:26:40;99032.88;;;10.59;100.00
21203;BME280;10759;51.982;9.232;2022-12-29T08:29:08;99038.22;;;10.59;100.00
21203;BME280;10759;51.982;9.232;2022-12-29T08:31:36;99041.78;;;10.43;100.00
21203;BME280;10759;51.982;9.232;2022-12-29T08:34:08;99035.84;;;10.38;100.00
21203;BME280;10759;51.982;9.232;2022-12-29T08:36:37;99040.44;;;10.36;100.00
21203;BME280;10759;51.982;9.232;2022-12-29T08:39:05;99038.88;;;10.16;100.00
21203;BME280;10759;51.982;9.232;2022-12-29T08:41:33;99047.13;;;10.29;100.00
21203;BME280;10759;51.982;9.232;2022-12-29T08:44:02;99033.34;;;10.19;100.00
21203;BME280;10759;51.982;9.232;2022-12-29T08:46:30;99050.09;;;10.23;100.00
21203;BME280;10759;51.982;9.232;2022-12-29T08:48:58;99042.44;;;10.17;100.00
21203;BME280;10759;51.982;9.232;2022-12-29T08:51:26;99046.22;;;10.13;100.00
21203;BME280;10759;51.982;9.232;2022-12-29T08:53:56;99040.25;;;10.23;100.00
21203;BME280;10759;51.982;9.232;2022-12-29T08:56:24;99037.81;;;10.19;100.00
21203;BME280;10759;51.982;9.232;2022-12-29T08:58:57;99050.94;;;10.23;100.00
21203;BME280;10759;51.982;9.232;2022-12-29T09:01:28;99064.09;;;10.12;100.00
21203;BME280;10759;51.982;9.232;2022-12-29T09:03:57;99060.53;;;10.27;100.00
21203;BME280;10759;51.982;9.232;2022-12-29T09:06:43;99054.84;;;10.18;100.00
21203;BME280;10759;51.982;9.232;2022-12-29T09:09:13;99042.31;;;10.18;100.00
21203;BME280;10759;51.982;9.232;2022-12-29T09:11:41;99049.78;;;10.29;100.00
21203;BME280;10759;51.982;9.232;2022-12-29T09:14:09;99052.50;;;10.27;100.00
21203;BME280;10759;51.982;9.232;2022-12-29T09:16:39;99056.22;;;10.25;100.00
21203;BME280;10759;51.982;9.232;2022-12-29T09:19:20;99052.69;;;10.24;100.00
21203;BME280;10759;51.982;9.232;2022-12-29T09:21:49;99047.59;;;10.20;100.00
21203;BME280;10759;51.982;9.232;2022-12-29T09:24:18;99046.56;;;10.38;100.00
21203;BME280;10759;51.982;9.232;2022-12-29T09:26:46;99064.13;;;10.58;100.00
21203;BME280;10759;51.982;9.232;2022-12-29T09:29:14;99065.38;;;10.52;100.00
21203;BME280;10759;51.982;9.232;2022-12-29T09:31:42;99062.47;;;10.41;100.00
21203;BME280;10759;51.982;9.232;2022-12-29T09:34:10;99071.50;;;10.55;100.00
21203;BME280;10759;51.982;9.232;2022-12-29T09:36:38;99071.50;;;10.55;100.00
21203;BME280;10759;51.982;9.232;2022-12-29T09:39:06;99065.09;;;10.57;100.00
21203;BME280;10759;51.982;9.232;2022-12-29T09:41:39;99070.06;;;10.79;100.00
21203;BME280;10759;51.982;9.232;2022-12-29T09:44:17;99044.19;;;10.64;100.00
21203;BME280;10759;51.982;9.232;2022-12-29T09:46:49;99063.72;;;10.80;100.00
21203;BME280;10759;51.982;9.232;2022-12-29T09:49:24;99099.75;;;10.90;100.00
21203;BME280;10759;51.982;9.232;2022-12-29T09:52:03;99090.75;;;10.91;100.00
21203;BME280;10759;51.982;9.232;2022-12-29T09:54:39;99080.78;;;10.79;100.00
21203;BME280;10759;51.982;9.232;2022-12-29T09:57:16;99094.41;;;10.90;100.00
21203;BME280;10759;51.982;9.232;2022-12-29T09:59:46;99105.28;;;10.87;100.00
21203;BME280;10759;51.982;9.232;2022-12-29T10:02:29;99100.66;;;10.75;100.00
21203;BME280;10759;51.982;9.232;2022-12-29T10:04:59;99102.53;;;10.73;100.00
21203;BME280;10759;51.982;9.232;2022-12-29T10:07:35;99094.75;;;10.84;100.00
21203;BME280;10759;51.982;9.232;2022-12-29T10:10:20;99092.00;;;10.86;100.00
21203;BME280;10759;51.982;9.232;2022-12-29T10:13:00;99075.41;;;10.79;100.00
21203;BME280;10759;51.982;9.232;2022-12-29T10:15:41;99088.03;;;10.77;100.00
21203;BME280;10759;51.982;9.232;2022-12-29T10:18:23;99072.16;;;10.74;100.00
21203;BME280;10759;51.982;9.232;2022-12-29T10:21:02;99072.53;;;10.82;100.00
21203;BME280;10759;51.982;9.232;2022-12-29T10:23:36;99070.63;;;10.84;100.00
21203;BME280;10759;51.982;9.232;2022-12-29T10:26:11;99079.22;;;10.75;100.00
21203;BME280;10759;51.982;9.232;2022-12-29T10:28:45;99054.94;;;10.78;100.00
21203;BME280;10759;51.982;9.232;2022-12-29T10:31:19;99050.63;;;10.76;98.85
21203;BME280;10759;51.982;9.232;2022-12-29T10:33:49;99041.03;;;10.71;100.00
21203;BME280;10759;51.982;9.232;2022-12-29T10:36:19;99084.53;;;10.91;100.00
21203;BME280;10759;51.982;9.232;2022-12-29T10:38:57;99071.75;;;10.80;100.00
21203;BME280;10759;51.982;9.232;2022-12-29T10:41:36;99082.25;;;10.99;100.00
21203;BME280;10759;51.982;9.232;2022-12-29T10:44:13;99095.19;;;11.07;98.52
21203;BME280;10759;51.982;9.232;2022-12-29T10:46:43;99086.75;;;10.99;99.87
21203;BME280;10759;51.982;9.232;2022-12-29T10:49:17;99094.56;;;10.87;100.00
21203;BME280;10759;51.982;9.232;2022-12-29T10:51:50;99091.72;;;10.90;98.90
21203;BME280;10759;51.982;9.232;2022-12-29T10:54:21;99073.28;;;10.70;96.00
21203;BME280;10759;51.982;9.232;2022-12-29T10:56:53;99099.16;;;10.85;96.80
21203;BME280;10759;51.982;9.232;2022-12-29T10:59:25;99106.13;;;10.73;95.82
21203;BME280;10759;51.982;9.232;2022-12-29T11:02:00;99106.91;;;10.90;94.64
21203;BME280;10759;51.982;9.232;2022-12-29T11:04:45;99097.63;;;10.81;92.66
21203;BME280;10759;51.982;9.232;2022-12-29T11:07:20;99085.94;;;10.82;95.55
21203;BME280;10759;51.982;9.232;2022-12-29T11:09:53;99115.69;;;10.78;95.65
21203;BME280;10759;51.982;9.232;2022-12-29T11:12:24;99102.47;;;10.74;92.99
21203;BME280;10759;51.982;9.232;2022-12-29T11:15:12;99099.38;;;10.66;91.83
21203;BME280;10759;51.982;9.232;2022-12-29T11:17:46;99116.25;;;10.68;94.25
21203;BME280;10759;51.982;9.232;2022-12-29T11:20:33;99098.59;;;10.64;93.26
21203;BME280;10759;51.982;9.232;2022-12-29T11:23:02;99099.44;;;10.81;93.37
21203;BME280;10759;51.982;9.232;2022-12-29T11:25:30;99096.84;;;10.79;93.51
21203;BME280;10759;51.982;9.232;2022-12-29T11:28:01;99101.03;;;10.69;93.24
21203;BME280;10759;51.982;9.232;2022-12-29T11:30:32;99086.78;;;10.83;93.14
21203;BME280;10759;51.982;9.232;2022-12-29T11:33:02;99055.47;;;10.69;92.32
21203;BME280;10759;51.982;9.232;2022-12-29T11:35:34;99084.03;;;10.84;94.79
21203;BME280;10759;51.982;9.232;2022-12-29T11:38:16;99107.81;;;10.90;92.10
21203;BME280;10759;51.982;9.232;2022-12-29T11:40:49;99089.41;;;10.84;95.63
21203;BME280;10759;51.982;9.232;2022-12-29T11:43:21;99063.47;;;10.55;93.87
21203;BME280;10759;51.982;9.232;2022-12-29T11:45:52;99122.66;;;10.96;92.55
21203;BME280;10759;51.982;9.232;2022-12-29T11:48:31;99126.00;;;11.00;92.02
21203;BME280;10759;51.982;9.232;2022-12-29T11:51:00;99133.63;;;10.91;94.54
21203;BME280;10759;51.982;9.232;2022-12-29T11:53:33;99113.09;;;10.76;93.98
21203;BME280;10759;51.982;9.232;2022-12-29T11:56:08;99106.38;;;10.69;93.95
21203;BME280;10759;51.982;9.232;2022-12-29T11:58:38;99106.38;;;10.69;95.01
21203;BME280;10759;51.982;9.232;2022-12-29T12:01:13;99108.69;;;10.75;95.95
21203;BME280;10759;51.982;9.232;2022-12-29T12:03:47;99110.97;;;10.67;96.49
21203;BME280;10759;51.982;9.232;2022-12-29T12:06:20;99114.16;;;10.73;96.47
21203;BME280;10759;51.982;9.232;2022-12-29T12:08:54;99106.56;;;10.66;99.16
21203;BME280;10759;51.982;9.232;2022-12-29T12:11:26;99113.91;;;10.62;100.00
21203;BME280;10759;51.982;9.232;2022-12-29T12:14:09;99047.00;;;10.15;99.86
21203;BME280;10759;51.982;9.232;2022-12-29T12:17:06;99104.69;;;10.52;98.18
21203;BME280;10759;51.982;9.232;2022-12-29T12:19:41;99114.44;;;10.53;98.46
21203;BME280;10759;51.982;9.232;2022-12-29T12:22:15;99113.22;;;10.59;99.44
21203;BME280;10759;51.982;9.232;2022-12-29T12:24:48;99081.88;;;10.45;99.18
21203;BME280;10759;51.982;9.232;2022-12-29T12:27:20;99118.34;;;10.47;100.00
21203;BME280;10759;51.982;9.232;2022-12-29T12:29:56;99116.31;;;10.67;96.61
21203;BME280;10759;51.982;9.232;2022-12-29T12:32:35;99115.72;;;10.62;95.92
21203;BME280;10759;51.982;9.232;2022-12-29T12:35:11;99123.25;;;10.71;96.31
21203;BME280;10759;51.982;9.232;2022-12-29T12:38:06;99127.09;;;10.81;94.23
21203;BME280;10759;51.982;9.232;2022-12-29T12:40:57;99124.16;;;10.70;92.65
21203;BME280;10759;51.982;9.232;2022-12-29T12:43:38;99132.91;;;10.73;94.89
21203;BME280;10759;51.982;9.232;2022-12-29T12:46:20;99112.09;;;10.63;92.99
21203;BME280;10759;51.982;9.232;2022-12-29T12:52:03;99131.88;;;10.76;91.16
21203;BME280;10759;51.982;9.232;2022-12-29T12:54:46;99096.72;;;10.50;89.54
21203;BME280;10759;51.982;9.232;2022-12-29T12:57:24;99138.47;;;10.85;87.70
21203;BME280;10759;51.982;9.232;2022-12-29T13:00:00;99135.91;;;10.83;88.30
21203;BME280;10759;51.982;9.232;2022-12-29T13:02:40;99101.22;;;10.50;87.83
21203;BME280;10759;51.982;9.232;2022-12-29T13:05:38;99142.00;;;10.71;88.64
21203;BME280;10759;51.982;9.232;2022-12-29T13:08:41;99144.56;;;10.72;87.17
21203;BME280;10759;51.982;9.232;2022-12-29T13:11:21;99141.81;;;10.74;86.61
21203;BME280;10759;51.982;9.232;2022-12-29T13:14:06;99146.31;;;10.73;87.24
21203;BME280;10759;51.982;9.232;2022-12-29T13:16:45;99149.06;;;10.72;86.25
21203;BME280;10759;51.982;9.232;2022-12-29T13:19:26;99132.41;;;10.67;86.57
21203;BME280;10759;51.982;9.232;2022-12-29T13:22:08;99161.34;;;10.76;85.94
21203;BME280;10759;51.982;9.232;2022-12-29T13:24:47;99160.75;;;10.71;86.53
21203;BME280;10759;51.982;9.232;2022-12-29T13:27:23;99160.47;;;10.76;86.63
21203;BME280;10759;51.982;9.232;2022-12-29T13:30:04;99131.19;;;10.41;86.89
21203;BME280;10759;51.982;9.232;2022-12-29T13:32:42;99159.03;;;10.54;86.99
21203;BME280;10759;51.982;9.232;2022-12-29T13:35:29;99161.53;;;10.57;87.13
21203;BME280;10759;51.982;9.232;2022-12-29T13:38:03;99172.13;;;10.74;85.35
21203;BME280;10759;51.982;9.232;2022-12-29T13:40:36;99184.59;;;10.76;85.37
21203;BME280;10759;51.982;9.232;2022-12-29T13:43:07;99117.31;;;10.34;85.30
21203;BME280;10759;51.982;9.232;2022-12-29T13:45:36;99182.19;;;10.71;83.88
21203;BME280;10759;51.982;9.232;2022-12-29T13:48:07;99189.97;;;10.76;85.12
21203;BME280;10759;51.982;9.232;2022-12-29T13:50:40;99169.50;;;10.59;85.23
21203;BME280;10759;51.982;9.232;2022-12-29T13:53:15;99190.56;;;10.65;85.06
21203;BME280;10759;51.982;9.232;2022-12-29T13:55:51;99203.75;;;10.68;85.07
21203;BME280;10759;51.982;9.232;2022-12-29T13:58:27;99218.72;;;10.72;83.88
21203;BME280;10759;51.982;9.232;2022-12-29T14:01:00;99198.84;;;10.60;84.15
21203;BME280;10759;51.982;9.232;2022-12-29T14:03:47;99214.41;;;10.69;85.19
21203;BME280;10759;51.982;9.232;2022-12-29T14:06:21;99208.34;;;10.50;85.72
21203;BME280;10759;51.982;9.232;2022-12-29T14:08:54;99139.91;;;10.13;85.08
21203;BME280;10759;51.982;9.232;2022-12-29T14:11:29;99233.94;;;10.71;84.72